Time;durP1;ratioP1;P1;durP2;ratioP2;P2;SDS_P1;SDS_P2;PMS_P1;PMS_P2;Temp;Humidity;BMP_temperature;BMP_pressure;BME280_temperature;BME280_humidity;BME280_pressure;Samples;Min_cycle;Max_cycle;Signal;HPM_P1;HPM_P2
2022/04/06 00:00:49;;;;;;;26.35;7.45;;;;;;;10.46;76.12;100240.97;3535409;40;20071;-63
2022/04/06 00:03:15;;;;;;;17.45;7.03;;;;;;;10.53;75.93;100250.34;3542636;40;20093;-66
2022/04/06 00:05:41;;;;;;;22.83;7.35;;;;;;;10.60;75.66;100266.91;3539201;40;20042;-65
2022/04/06 00:08:07;;;;;;;22.48;7.10;;;;;;;10.59;75.93;100260.66;3529332;40;20049;-64
2022/04/06 00:10:33;;;;;;;18.58;6.55;;;;;;;10.52;76.00;100243.25;3531622;40;20101;-65
2022/04/06 00:13:00;;;;;;;18.23;7.22;;;;;;;10.43;75.92;100234.03;3546335;40;20062;-65
2022/04/06 00:15:26;;;;;;;21.38;6.95;;;;;;;10.44;75.96;100229.50;3535106;40;20096;-66
2022/04/06 00:17:53;;;;;;;16.77;6.53;;;;;;;10.58;75.78;100255.38;3544377;40;20129;-65
2022/04/06 00:20:19;;;;;;;19.85;6.93;;;;;;;10.57;75.75;100251.00;3537626;40;20138;-65
2022/04/06 00:22:45;;;;;;;22.33;6.93;;;;;;;10.57;75.91;100245.63;3529390;40;20077;-64
2022/04/06 00:25:10;;;;;;;20.35;7.28;;;;;;;10.54;75.53;100241.31;3544341;40;20085;-65
2022/04/06 00:27:36;;;;;;;21.75;6.10;;;;;;;10.45;75.86;100226.69;3534106;40;20057;-65
2022/04/06 00:30:04;;;;;;;19.00;6.32;;;;;;;10.56;75.76;100243.88;3537684;40;20060;-64
2022/04/06 00:32:30;;;;;;;17.48;6.13;;;;;;;10.59;75.72;100249.03;3535355;40;20140;-64
2022/04/06 00:37:40;;;;;;;24.65;6.90;;;;;;;10.54;75.93;100240.47;3533367;40;20091;-64
2022/04/06 00:40:08;;;;;;;22.15;6.18;;;;;;;10.52;76.29;100245.06;3544221;40;20078;-64
2022/04/06 00:42:34;;;;;;;16.15;5.90;;;;;;;10.49;75.50;100246.16;3532451;40;20616;-64
2022/04/06 00:45:00;;;;;;;19.35;6.78;;;;;;;10.50;75.51;100238.94;3535519;40;20038;-64
2022/04/06 00:47:26;;;;;;;22.30;6.78;;;;;;;10.30;75.62;100200.91;3534304;40;20304;-64
2022/04/06 00:49:52;;;;;;;18.58;6.82;;;;;;;10.22;75.83;100189.84;3542867;40;20937;-64
2022/04/06 00:52:20;;;;;;;15.90;6.15;;;;;;;10.37;76.17;100221.03;3537662;40;20054;-65
2022/04/06 00:54:48;;;;;;;21.50;6.78;;;;;;;10.45;75.78;100231.22;3536627;40;20069;-64
2022/04/06 00:57:14;;;;;;;18.80;6.22;;;;;;;10.41;75.66;100233.25;3542455;40;20054;-64
2022/04/06 00:59:42;;;;;;;18.73;6.03;;;;;;;10.27;75.89;100211.00;3534167;40;20071;-64
2022/04/06 01:02:08;;;;;;;20.50;6.13;;;;;;;10.43;75.24;100231.34;3537172;40;20054;-64
2022/04/06 01:04:33;;;;;;;16.30;5.60;;;;;;;10.43;75.79;100228.66;3537227;40;20582;-65
2022/04/06 01:06:59;;;;;;;22.20;6.25;;;;;;;10.43;75.66;100222.38;3535614;40;20076;-64
2022/04/06 01:09:26;;;;;;;18.80;4.97;;;;;;;9.88;75.53;100130.44;3538599;40;20286;-65
2022/04/06 01:11:52;;;;;;;14.40;5.68;;;;;;;10.40;75.76;100218.13;3545409;40;20138;-64
2022/04/06 01:14:21;;;;;;;22.17;6.57;;;;;;;10.03;75.79;100152.66;3537141;40;20054;-64
2022/04/06 01:17:07;;;;;;;18.13;5.68;;;;;;;10.43;75.22;100212.53;3533020;40;20133;-64
2022/04/06 01:19:39;;;;;;;18.45;5.60;;;;;;;10.39;75.47;100216.38;3535815;40;20108;-64
2022/04/06 01:22:11;;;;;;;22.80;6.03;;;;;;;9.63;75.06;100084.81;3536896;40;20073;-64
2022/04/06 01:24:38;;;;;;;20.55;5.60;;;;;;;10.39;75.44;100210.16;3536405;40;20109;-64
2022/04/06 01:27:04;;;;;;;21.88;5.85;;;;;;;10.37;75.00;100217.44;3542372;40;20066;-64
2022/04/06 01:29:31;;;;;;;21.98;5.97;;;;;;;10.39;74.87;100213.69;3540358;40;20100;-64
2022/04/06 01:32:10;;;;;;;24.02;5.88;;;;;;;9.91;75.14;100135.59;3526614;40;20050;-64
2022/04/06 01:34:37;;;;;;;14.27;4.88;;;;;;;10.37;74.96;100214.75;3536188;40;20074;-64
2022/04/06 01:37:05;;;;;;;16.42;5.38;;;;;;;10.37;74.81;100212.97;3543354;40;20062;-64
2022/04/06 01:39:32;;;;;;;22.55;5.05;;;;;;;10.37;75.42;100212.06;3529174;40;20069;-63
2022/04/06 01:41:58;;;;;;;14.35;4.80;;;;;;;10.35;74.80;100201.47;3541873;40;20069;-64
2022/04/06 01:44:24;;;;;;;16.10;5.43;;;;;;;10.37;74.85;100212.97;3542804;40;20061;-64
2022/04/06 01:46:50;;;;;;;14.68;5.20;;;;;;;10.19;74.68;100173.94;3534305;40;20547;-63
2022/04/06 01:52:12;;;;;;;16.30;4.53;;;;;;;10.34;74.98;100197.06;3541981;40;20814;-64
2022/04/06 01:54:56;;;;;;;19.42;4.57;;;;;;;10.32;74.27;100204.34;3533084;40;20053;-64
2022/04/06 01:57:23;;;;;;;17.10;4.30;;;;;;;10.32;74.21;100204.34;3543297;40;20065;-66
2022/04/06 01:59:50;;;;;;;14.45;4.60;;;;;;;10.32;74.69;100195.44;3540137;40;20068;-66
2022/04/06 02:02:19;;;;;;;17.27;4.78;;;;;;;10.31;75.18;100194.59;3534323;40;20084;-66
2022/04/06 02:04:44;;;;;;;15.90;4.95;;;;;;;10.29;74.33;100196.50;3527844;40;20054;-66
2022/04/06 02:07:11;;;;;;;16.35;4.80;;;;;;;10.30;73.81;100195.53;3541284;40;20068;-64
2022/04/06 02:09:38;;;;;;;17.38;4.35;;;;;;;10.29;74.14;100193.81;3534944;40;20079;-64
2022/04/06 02:12:07;;;;;;;16.90;4.70;;;;;;;10.09;74.54;100159.44;3538485;40;20046;-64
2022/04/06 02:14:33;;;;;;;17.40;4.30;;;;;;;10.28;74.65;100191.28;3543018;40;20320;-64
2022/04/06 02:17:00;;;;;;;20.80;5.15;;;;;;;10.25;74.30;100186.94;3536044;40;20143;-63
2022/04/06 02:19:26;;;;;;;16.42;4.68;;;;;;;10.24;74.34;100185.19;3539043;40;20089;-63
2022/04/06 02:21:52;;;;;;;14.55;4.18;;;;;;;10.24;74.01;100185.19;3537191;40;20061;-63
2022/04/06 02:24:18;;;;;;;14.32;4.00;;;;;;;10.23;74.25;100187.03;3539286;40;20070;-64
2022/04/06 02:26:45;;;;;;;15.93;5.10;;;;;;;10.20;73.72;100178.31;3537486;40;20393;-66
2022/04/06 02:29:12;;;;;;;17.60;4.05;;;;;;;10.07;73.91;100156.84;3543893;40;20062;-66
2022/04/06 02:31:38;;;;;;;15.85;3.95;;;;;;;10.18;74.05;100166.81;3539500;40;20061;-65
2022/04/06 02:34:04;;;;;;;11.02;4.13;;;;;;;10.19;73.51;100177.47;3532474;40;23106;-66
2022/04/06 02:36:30;;;;;;;10.20;3.90;;;;;;;10.18;72.81;100174.88;3537938;40;20393;-65
2022/04/06 02:38:55;;;;;;;16.08;3.72;;;;;;;10.17;73.18;100173.16;3537140;40;20674;-66
2022/04/06 02:41:21;;;;;;;12.48;3.85;;;;;;;10.17;72.96;100174.03;3546253;40;20376;-65
2022/04/06 02:43:46;;;;;;;15.48;4.45;;;;;;;10.18;72.99;100172.19;3537308;40;20073;-66
2022/04/06 02:46:13;;;;;;;16.90;4.68;;;;;;;10.13;72.72;100166.31;3546142;40;20282;-65
2022/04/06 02:48:39;;;;;;;16.15;3.97;;;;;;;10.11;72.91;100161.03;3530843;40;20045;-65
2022/04/06 02:51:04;;;;;;;13.07;4.20;;;;;;;10.10;72.58;100156.63;3534226;40;21020;-66
2022/04/06 02:53:30;;;;;;;13.10;3.85;;;;;;;10.07;72.72;100156.00;3538752;40;20085;-66
2022/04/06 02:55:55;;;;;;;14.18;4.07;;;;;;;10.08;73.47;100166.63;3537610;40;20143;-66
2022/04/06 02:58:21;;;;;;;14.15;3.38;;;;;;;10.07;72.83;100162.22;3539603;40;20046;-66
2022/04/06 03:00:47;;;;;;;18.98;4.28;;;;;;;10.04;72.54;100146.31;3532623;40;20572;-66
2022/04/06 03:03:12;;;;;;;16.20;4.00;;;;;;;10.05;72.08;100152.56;3537088;40;20062;-66
2022/04/06 03:05:39;;;;;;;14.45;3.97;;;;;;;9.98;72.00;100134.19;3535370;40;20057;-66
2022/04/06 03:08:06;;;;;;;13.63;3.80;;;;;;;10.00;71.49;100150.19;3538268;40;23155;-66
2022/04/06 03:10:32;;;;;;;15.50;3.97;;;;;;;10.00;71.95;100144.84;3537980;40;20087;-66
2022/04/06 03:12:58;;;;;;;15.20;3.80;;;;;;;9.99;71.47;100143.13;3538571;40;20148;-66
2022/04/06 03:15:23;;;;;;;18.98;5.22;;;;;;;9.98;71.57;100138.69;3545202;40;20062;-66
2022/04/06 03:17:49;;;;;;;13.98;3.20;;;;;;;9.98;70.94;100139.56;3533512;40;20523;-65
2022/04/06 03:20:14;;;;;;;10.93;3.60;;;;;;;9.99;71.17;100138.59;3544607;40;20123;-64
2022/04/06 03:22:41;;;;;;;11.75;3.60;;;;;;;9.96;71.58;100130.78;3536674;40;20092;-65
2022/04/06 03:25:08;;;;;;;10.13;3.30;;;;;;;9.97;71.03;100127.09;3538073;40;20065;-65
2022/04/06 03:27:36;;;;;;;16.33;3.63;;;;;;;9.97;70.79;100135.16;3538953;40;20323;-65
2022/04/06 03:30:11;;;;;;;11.50;3.42;;;;;;;9.97;71.40;100126.25;3538093;40;20708;-64
2022/04/06 03:32:37;;;;;;;11.77;3.10;;;;;;;9.51;70.84;100049.84;3545398;40;20081;-65
2022/04/06 03:35:03;;;;;;;10.10;3.00;;;;;;;9.96;70.83;100113.81;3535055;40;20147;-65
2022/04/06 03:37:29;;;;;;;13.40;3.13;;;;;;;9.94;70.49;100107.69;3537265;40;20306;-65
2022/04/06 03:39:55;;;;;;;11.60;3.00;;;;;;;9.94;70.42;100116.59;3536478;40;20750;-65
2022/04/06 03:42:21;;;;;;;10.52;2.90;;;;;;;9.94;70.12;100108.53;3538077;40;20095;-63
2022/04/06 03:44:46;;;;;;;11.75;3.20;;;;;;;9.92;69.68;100104.22;3537228;40;20074;-64
2022/04/06 03:47:12;;;;;;;10.57;2.90;;;;;;;9.96;69.67;100098.56;3545975;40;20057;-63
2022/04/06 03:49:37;;;;;;;12.88;3.40;;;;;;;9.97;69.60;100092.19;3534768;40;20054;-64
2022/04/06 03:52:03;;;;;;;15.38;2.85;;;;;;;9.96;69.59;100105.75;3538757;40;20796;-63
2022/04/06 03:54:29;;;;;;;11.65;3.28;;;;;;;9.95;69.86;100095.97;3543509;40;20089;-63
2022/04/06 03:56:55;;;;;;;8.13;2.70;;;;;;;9.98;69.21;100098.44;3529495;40;20061;-63
2022/04/06 03:59:21;;;;;;;10.38;3.40;;;;;;;10.03;68.96;100100.81;3545364;40;20053;-62
2022/04/06 04:01:46;;;;;;;13.10;3.03;;;;;;;9.99;68.36;100098.34;3536314;40;20650;-63
2022/04/06 04:04:12;;;;;;;9.65;2.55;;;;;;;10.00;68.93;100092.00;3544273;40;20069;-62
2022/04/06 04:06:37;;;;;;;13.65;2.65;;;;;;;10.04;68.28;100086.41;3534307;40;20053;-63
2022/04/06 04:09:04;;;;;;;12.05;3.20;;;;;;;10.03;69.37;100090.06;3534575;40;20056;-62
2022/04/06 04:11:30;;;;;;;11.80;2.60;;;;;;;10.08;68.42;100094.09;3538896;40;20085;-63
2022/04/06 04:13:56;;;;;;;10.90;2.90;;;;;;;10.06;68.97;100090.69;3537928;40;20054;-63
2022/04/06 04:16:23;;;;;;;14.68;3.05;;;;;;;10.08;69.49;100095.94;3539895;40;20062;-63
2022/04/06 04:18:49;;;;;;;13.13;3.05;;;;;;;10.10;69.54;100096.69;3541185;40;20077;-63
2022/04/06 04:21:33;;;;;;;13.30;3.28;;;;;;;10.12;69.39;100094.78;3535920;40;20160;-63
2022/04/06 04:24:04;;;;;;;12.93;3.10;;;;;;;10.10;69.88;100091.34;3533265;40;20045;-63
2022/04/06 04:26:31;;;;;;;15.20;3.40;;;;;;;10.13;70.23;100083.06;3525359;40;20112;-63
2022/04/06 04:28:57;;;;;;;11.50;4.10;;;;;;;10.10;70.72;100077.91;3533416;40;20072;-63
2022/04/06 04:31:24;;;;;;;15.88;3.92;;;;;;;10.14;70.83;100087.44;3544779;40;20095;-64
2022/04/06 04:33:50;;;;;;;11.80;4.00;;;;;;;10.06;70.38;100066.53;3535871;40;20146;-64
2022/04/06 04:36:17;;;;;;;13.50;3.75;;;;;;;10.10;70.52;100084.13;3544067;40;20139;-64
2022/04/06 04:38:43;;;;;;;16.63;4.30;;;;;;;10.11;71.21;100076.94;3534042;40;20097;-64
2022/04/06 04:41:09;;;;;;;14.70;4.53;;;;;;;9.99;71.65;100057.22;3538201;40;20050;-63
2022/04/06 04:43:36;;;;;;;18.92;4.40;;;;;;;10.09;71.99;100078.88;3534409;40;20065;-63
2022/04/06 04:46:03;;;;;;;16.90;4.45;;;;;;;10.12;72.10;100084.88;3538778;40;20077;-63
2022/04/06 04:48:29;;;;;;;18.40;4.78;;;;;;;10.08;71.79;100074.47;3540195;40;20172;-64
2022/04/06 04:50:55;;;;;;;21.75;5.18;;;;;;;10.09;71.50;100071.69;3542488;40;20696;-64
2022/04/06 04:53:20;;;;;;;15.57;4.53;;;;;;;10.10;71.69;100069.84;3535151;40;20053;-63
2022/04/06 04:55:47;;;;;;;14.65;4.97;;;;;;;10.10;72.45;100065.34;3537877;40;20150;-63
2022/04/06 04:58:12;;;;;;;20.73;5.35;;;;;;;10.06;71.89;100058.47;3538679;40;20062;-62
2022/04/06 05:00:38;;;;;;;15.88;5.45;;;;;;;10.09;72.09;100052.03;3536823;40;20403;-63
2022/04/06 05:03:05;;;;;;;14.88;4.95;;;;;;;10.04;72.14;100055.03;3539904;40;20145;-63
2022/04/06 05:05:31;;;;;;;18.52;4.93;;;;;;;10.10;72.04;100059.09;3544069;40;20086;-62
2022/04/06 05:07:59;;;;;;;17.63;5.07;;;;;;;10.11;71.18;100047.38;3533750;40;21100;-62
2022/04/06 05:10:25;;;;;;;19.02;4.88;;;;;;;10.13;71.05;100053.50;3543782;40;20057;-63
2022/04/06 05:12:52;;;;;;;14.38;5.45;;;;;;;10.12;71.26;100051.81;3527491;40;20061;-62
2022/04/06 05:15:20;;;;;;;14.60;4.25;;;;;;;9.92;70.88;100029.91;3537756;40;20090;-65
2022/04/06 05:17:46;;;;;;;17.50;4.82;;;;;;;9.98;70.73;100032.16;3540887;40;20072;-63
2022/04/06 05:20:12;;;;;;;14.23;4.80;;;;;;;10.15;71.01;100062.34;3538869;40;20124;-63
2022/04/06 05:22:39;;;;;;;17.23;4.75;;;;;;;10.15;70.88;100056.97;3537272;40;20912;-65
2022/04/06 05:25:07;;;;;;;14.73;4.57;;;;;;;10.17;71.06;100055.00;3539527;40;20097;-63
2022/04/06 05:27:44;;;;;;;13.18;4.10;;;;;;;10.14;71.04;100049.84;3541493;40;20133;-61
2022/04/06 05:30:14;;;;;;;16.52;4.40;;;;;;;10.14;71.17;100052.53;3542113;40;20678;-62
2022/04/06 05:32:40;;;;;;;16.17;4.78;;;;;;;10.17;71.04;100055.84;3539392;40;20042;-62
2022/04/06 05:35:09;;;;;;;10.25;3.60;;;;;;;10.16;70.01;100047.91;3538670;40;20131;-62
2022/04/06 05:37:36;;;;;;;17.05;4.35;;;;;;;10.17;70.15;100052.31;3543855;40;20085;-62
2022/04/06 05:40:04;;;;;;;13.38;3.80;;;;;;;9.79;69.66;99982.59;3534987;40;20292;-65
2022/04/06 05:42:29;;;;;;;14.20;3.42;;;;;;;10.19;70.50;100047.69;3544358;40;20225;-61
2022/04/06 05:44:56;;;;;;;12.38;3.75;;;;;;;10.17;70.50;100046.94;3535833;40;20478;-63
2022/04/06 05:47:22;;;;;;;12.40;3.53;;;;;;;10.17;69.86;100055.00;3538410;40;20061;-64
2022/04/06 05:49:49;;;;;;;11.90;3.53;;;;;;;10.10;69.53;100033.09;3535161;40;20077;-63
2022/04/06 05:52:14;;;;;;;13.57;3.40;;;;;;;10.27;69.71;100060.59;3541906;40;21443;-64
2022/04/06 05:54:40;;;;;;;10.70;3.35;;;;;;;10.21;69.13;100040.38;3534168;40;20068;-64
2022/04/06 05:57:06;;;;;;;8.85;2.85;;;;;;;10.21;68.49;100035.00;3542270;40;20288;-64
2022/04/06 05:59:31;;;;;;;16.83;3.45;;;;;;;10.20;69.02;100035.97;3534873;40;20050;-63
2022/04/06 06:01:57;;;;;;;9.82;3.13;;;;;;;10.20;69.29;100035.97;3540573;40;20637;-64
2022/04/06 06:04:23;;;;;;;9.20;2.67;;;;;;;10.16;67.50;100031.81;3537885;40;20068;-64
2022/04/06 06:06:48;;;;;;;9.90;2.63;;;;;;;10.26;67.68;100046.31;3535474;40;20070;-64
2022/04/06 06:09:14;;;;;;;11.68;2.50;;;;;;;10.28;66.44;100041.69;3543257;40;20435;-63
2022/04/06 06:11:41;;;;;;;8.35;2.75;;;;;;;10.28;66.25;100052.44;3534688;40;20073;-63
2022/04/06 06:14:08;;;;;;;12.05;2.65;;;;;;;10.29;64.93;100048.78;3535995;40;20062;-64
2022/04/06 06:16:34;;;;;;;6.38;2.05;;;;;;;10.32;64.64;100045.88;3541748;40;20097;-63
2022/04/06 06:18:59;;;;;;;6.57;1.98;;;;;;;10.36;63.82;100041.97;3535810;40;20073;-64
2022/04/06 06:21:27;;;;;;;11.30;2.42;;;;;;;10.31;63.96;100044.16;3538383;40;20085;-64
2022/04/06 06:23:53;;;;;;;7.50;1.95;;;;;;;10.23;63.74;100023.19;3541770;40;20052;-63
2022/04/06 06:26:20;;;;;;;7.75;2.08;;;;;;;10.43;63.49;100056.69;3534085;40;20407;-65
2022/04/06 06:28:46;;;;;;;7.63;2.30;;;;;;;10.43;62.87;100048.63;3535502;40;20093;-64
2022/04/06 06:31:11;;;;;;;6.40;1.63;;;;;;;10.45;62.95;100043.97;3542057;40;20053;-65
2022/04/06 06:33:37;;;;;;;6.05;1.38;;;;;;;10.48;62.41;100047.44;3542269;40;20093;-65
2022/04/06 06:36:03;;;;;;;6.70;2.20;;;;;;;10.50;61.80;100045.47;3529889;40;20123;-64
2022/04/06 06:38:29;;;;;;;8.10;1.60;;;;;;;9.98;61.50;99948.06;3541920;40;20050;-65
2022/04/06 06:40:54;;;;;;;6.95;1.73;;;;;;;10.52;60.92;100038.16;3532291;40;20689;-65
2022/04/06 06:43:20;;;;;;;9.25;1.52;;;;;;;10.59;60.94;100047.47;3543627;40;20068;-65
2022/04/06 06:45:46;;;;;;;5.90;1.90;;;;;;;10.56;61.10;100039.63;3534560;40;20321;-65
2022/04/06 06:48:12;;;;;;;6.53;1.92;;;;;;;10.58;61.04;100033.19;3543242;40;20054;-64
2022/04/06 06:50:37;;;;;;;5.78;1.80;;;;;;;10.60;60.63;100030.41;3536267;40;20061;-64
2022/04/06 06:53:03;;;;;;;8.60;1.45;;;;;;;10.65;60.33;100029.06;3537471;40;20053;-64
2022/04/06 06:55:29;;;;;;;9.00;2.10;;;;;;;10.68;60.14;100030.66;3543706;40;20053;-64
2022/04/06 06:57:54;;;;;;;6.43;1.75;;;;;;;10.70;59.75;100031.41;3534387;40;20694;-64
2022/04/06 07:00:20;;;;;;;6.82;1.60;;;;;;;10.74;59.80;100032.88;3538092;40;20364;-64
2022/04/06 07:02:46;;;;;;;4.05;1.70;;;;;;;10.80;59.72;100031.56;3536984;40;20069;-65
2022/04/06 07:05:11;;;;;;;5.45;1.63;;;;;;;10.81;59.51;100027.91;3544953;40;20061;-66
2022/04/06 07:07:55;;;;;;;4.85;1.50;;;;;;;10.83;60.20;100036.72;3533681;40;20396;-64
2022/04/06 07:10:25;;;;;;;9.13;2.38;;;;;;;10.83;60.56;100028.66;3535430;40;20093;-63
2022/04/06 07:12:53;;;;;;;10.50;2.13;;;;;;;10.86;61.51;100034.66;3533713;40;20405;-64
2022/04/06 07:15:19;;;;;;;10.00;2.78;;;;;;;10.78;62.36;100023.59;3535270;40;20076;-64
2022/04/06 07:17:51;;;;;;;8.18;2.28;;;;;;;10.76;63.45;100025.56;3546280;40;20065;-63
2022/04/06 07:20:16;;;;;;;7.35;2.70;;;;;;;10.72;64.78;100029.47;3542955;40;20093;-64
2022/04/06 07:22:42;;;;;;;8.95;2.80;;;;;;;10.67;65.51;100047.78;3533305;40;20287;-63
2022/04/06 07:25:08;;;;;;;11.30;2.92;;;;;;;10.62;66.06;100025.75;3543296;40;20057;-65
2022/04/06 07:27:38;;;;;;;11.55;2.92;;;;;;;10.63;65.93;100022.09;3544778;40;20086;-63
2022/04/06 07:30:09;;;;;;;8.63;2.90;;;;;;;10.56;66.58;100012.75;3533993;40;20418;-64
2022/04/06 07:32:36;;;;;;;11.20;3.58;;;;;;;10.59;66.40;100007.16;3536764;40;20412;-63
2022/04/06 07:35:06;;;;;;;8.00;3.33;;;;;;;10.58;66.84;100010.81;3542931;40;20510;-64
2022/04/06 07:37:37;;;;;;;14.00;3.47;;;;;;;10.50;66.84;99987.22;3540405;40;20049;-64
2022/04/06 07:40:05;;;;;;;8.95;3.50;;;;;;;10.59;66.69;100008.03;3537859;40;20053;-64
2022/04/06 07:42:31;;;;;;;8.90;3.00;;;;;;;10.56;66.74;99993.94;3545347;40;20077;-63
2022/04/06 07:44:56;;;;;;;7.55;2.90;;;;;;;10.54;66.64;99994.09;3535342;40;20375;-65
2022/04/06 07:47:30;;;;;;;8.65;3.53;;;;;;;10.59;66.65;99996.41;3538646;40;20150;-64
2022/04/06 07:49:57;;;;;;;8.57;2.80;;;;;;;10.37;66.94;99954.16;3543290;40;20073;-64
2022/04/06 07:52:23;;;;;;;9.57;3.10;;;;;;;10.55;66.71;99968.06;3537641;40;20053;-63
2022/04/06 07:54:49;;;;;;;14.10;3.10;;;;;;;10.69;66.81;99979.50;3540218;40;20050;-63
2022/04/06 07:57:15;;;;;;;7.70;2.85;;;;;;;10.74;66.42;99979.13;3542324;40;20050;-64
2022/04/06 07:59:40;;;;;;;11.15;3.10;;;;;;;10.83;66.15;99978.44;3536847;40;20147;-64
2022/04/06 08:02:06;;;;;;;10.48;3.20;;;;;;;10.91;66.25;99983.22;3524505;40;20068;-64
2022/04/06 08:04:31;;;;;;;10.80;3.10;;;;;;;10.99;65.54;99971.88;3546115;40;20058;-64
2022/04/06 08:06:57;;;;;;;6.30;2.50;;;;;;;11.00;65.81;99968.19;3543547;40;20065;-64
2022/04/06 08:09:23;;;;;;;7.70;2.95;;;;;;;11.12;65.11;99962.72;3521907;40;20101;-62
2022/04/06 08:11:48;;;;;;;9.30;2.70;;;;;;;11.17;65.27;99977.66;3542227;40;20528;-62
2022/04/06 08:14:14;;;;;;;11.52;2.67;;;;;;;11.20;64.81;99967.53;3533886;40;20069;-62
2022/04/06 08:16:39;;;;;;;9.93;2.90;;;;;;;11.21;64.45;99980.00;3545795;40;20064;-63
2022/04/06 08:19:05;;;;;;;16.42;4.80;;;;;;;11.23;64.90;99975.34;3537996;40;20044;-64
2022/04/06 08:21:30;;;;;;;8.40;2.90;;;;;;;11.18;64.49;99982.91;3545813;40;20054;-62
2022/04/06 08:23:56;;;;;;;8.15;2.53;;;;;;;11.16;64.45;99974.09;3543597;40;20049;-61
2022/04/06 08:26:21;;;;;;;6.97;2.45;;;;;;;11.09;64.80;99978.25;3534357;40;20125;-63
2022/04/06 08:28:47;;;;;;;7.88;2.70;;;;;;;11.07;65.00;99977.53;3543162;40;20049;-63
2022/04/06 08:31:13;;;;;;;8.00;2.53;;;;;;;11.06;65.41;99975.78;3533537;40;20045;-63
2022/04/06 08:33:38;;;;;;;9.80;2.63;;;;;;;11.02;64.97;99979.72;3537994;40;20505;-63
2022/04/06 08:36:06;;;;;;;11.00;3.15;;;;;;;10.98;64.74;99976.41;3543229;40;20053;-62
2022/04/06 08:38:32;;;;;;;7.53;2.60;;;;;;;10.87;65.37;99969.13;3545800;40;20062;-63
2022/04/06 08:40:58;;;;;;;11.35;2.90;;;;;;;10.93;65.09;99979.44;3538306;40;20075;-63
2022/04/06 08:43:24;;;;;;;5.18;2.40;;;;;;;10.97;65.66;99979.19;3540895;40;20156;-63
2022/04/06 08:45:50;;;;;;;9.73;3.33;;;;;;;11.03;65.06;99968.81;3545123;40;20411;-62
2022/04/06 08:48:20;;;;;;;9.43;2.92;;;;;;;11.01;65.84;99972.63;3536489;40;20061;-62
2022/04/06 08:50:48;;;;;;;12.13;3.20;;;;;;;11.02;66.10;99977.00;3539503;40;20787;-63
2022/04/06 08:53:14;;;;;;;6.60;2.90;;;;;;;11.04;64.96;99977.75;3543172;40;20131;-64
2022/04/06 08:55:39;;;;;;;11.30;3.13;;;;;;;11.10;64.98;99978.16;3545620;40;20057;-62
2022/04/06 08:58:05;;;;;;;7.60;2.53;;;;;;;11.11;65.29;99965.56;3533198;40;20294;-61
2022/04/06 09:00:33;;;;;;;10.10;3.10;;;;;;;11.06;65.54;99954.28;3546201;40;20053;-65
2022/04/06 09:02:58;;;;;;;12.23;2.92;;;;;;;11.21;65.52;99963.00;3537202;40;20296;-62
2022/04/06 09:05:28;;;;;;;10.43;3.20;;;;;;;11.22;65.65;99957.47;3536355;40;20058;-62
2022/04/06 09:07:56;;;;;;;8.75;2.83;;;;;;;11.22;65.56;99972.75;3543459;40;20128;-62
2022/04/06 09:10:35;;;;;;;10.43;3.00;;;;;;;11.19;65.52;99963.09;3542835;40;20066;-62
2022/04/06 09:13:15;;;;;;;7.68;2.95;;;;;;;11.13;66.04;99974.34;3538860;40;20050;-62
2022/04/06 09:15:42;;;;;;;8.60;2.88;;;;;;;11.16;66.86;99968.72;3545760;40;20085;-63
2022/04/06 09:18:08;;;;;;;13.15;3.20;;;;;;;11.16;67.23;99968.72;3534988;40;20144;-62
2022/04/06 09:20:34;;;;;;;8.05;2.70;;;;;;;11.23;66.15;99963.75;3539556;40;20057;-63
2022/04/06 09:23:05;;;;;;;8.73;2.83;;;;;;;11.27;67.17;99963.38;3543017;40;20432;-61
2022/04/06 09:25:37;;;;;;;5.28;2.35;;;;;;;11.29;66.72;99957.84;3543372;40;20061;-63
2022/04/06 09:28:14;;;;;;;8.73;2.50;;;;;;;11.29;65.94;99961.44;3536675;40;20045;-63
2022/04/06 09:30:46;;;;;;;7.90;2.70;;;;;;;11.29;65.77;99961.44;3541218;40;20049;-63
2022/04/06 09:33:21;;;;;;;7.30;2.80;;;;;;;11.34;66.12;99955.66;3546138;40;20292;-63
2022/04/06 09:35:48;;;;;;;10.10;2.70;;;;;;;11.36;66.35;99964.47;3528610;40;20442;-63
2022/04/06 09:38:23;;;;;;;9.27;2.60;;;;;;;11.36;66.04;99969.88;3545679;40;20368;-63
2022/04/06 09:41:00;;;;;;;29.08;13.25;;;;;;;11.31;65.84;99975.59;3544872;40;20053;-63
2022/04/06 09:43:30;;;;;;;13.48;4.72;;;;;;;10.81;65.24;99877.34;3536741;40;20064;-63
2022/04/06 09:49:01;;;;;;;5.85;2.92;;;;;;;11.33;65.88;99965.56;3533873;40;20466;-62
2022/04/06 09:51:27;;;;;;;8.82;3.25;;;;;;;11.35;66.42;99952.88;3536753;40;20119;-62
2022/04/06 09:53:54;;;;;;;10.38;2.90;;;;;;;11.29;66.41;99942.59;3542783;40;20054;-62
2022/04/06 09:56:21;;;;;;;8.63;2.67;;;;;;;11.35;67.09;99962.75;3543714;40;20061;-62
2022/04/06 09:58:48;;;;;;;7.22;2.75;;;;;;;11.38;67.50;99958.00;3535872;40;20265;-63
2022/04/06 10:01:16;;;;;;;11.73;2.70;;;;;;;11.35;67.79;99947.50;3545755;40;20053;-63
2022/04/06 10:03:49;;;;;;;5.78;2.50;;;;;;;11.39;66.51;99948.94;3532245;40;20143;-63
2022/04/06 10:06:16;;;;;;;9.35;2.80;;;;;;;11.38;66.61;99946.38;3536456;40;20057;-62
2022/04/06 10:08:43;;;;;;;9.05;2.63;;;;;;;11.37;66.87;99948.19;3535616;40;20102;-63
2022/04/06 10:11:11;;;;;;;6.72;2.53;;;;;;;11.41;66.96;99945.28;3546510;40;20066;-63
2022/04/06 10:13:39;;;;;;;8.90;3.00;;;;;;;11.47;66.83;99950.16;3543345;40;20060;-62
2022/04/06 10:16:11;;;;;;;6.15;2.72;;;;;;;11.49;66.44;99943.69;3539130;40;20127;-63
2022/04/06 10:18:38;;;;;;;7.93;3.15;;;;;;;11.50;66.64;99937.31;3534241;40;20068;-62
2022/04/06 10:21:30;;;;;;;8.98;2.72;;;;;;;11.55;65.75;99939.66;3545485;40;20053;-63
2022/04/06 10:24:15;;;;;;;6.88;2.47;;;;;;;11.55;66.15;99937.81;3541632;40;20139;-63
2022/04/06 10:26:46;;;;;;;6.65;2.45;;;;;;;11.52;65.12;99929.13;3542578;40;20083;-63
2022/04/06 10:29:12;;;;;;;8.73;2.90;;;;;;;11.51;66.36;99936.38;3545495;40;20053;-63
2022/04/06 10:31:38;;;;;;;8.07;2.65;;;;;;;11.51;66.95;99940.84;3535222;40;20281;-62
2022/04/06 10:34:30;;;;;;;9.07;2.55;;;;;;;11.47;66.92;99934.03;3531975;40;20136;-62
2022/04/06 10:37:11;;;;;;;5.55;2.45;;;;;;;11.42;66.43;99937.09;3536705;40;21308;-63
2022/04/06 10:39:51;;;;;;;10.43;3.13;;;;;;;11.41;66.66;99939.88;3543935;40;20053;-63
2022/04/06 10:42:28;;;;;;;8.98;2.50;;;;;;;11.39;66.31;99924.72;3543797;40;20376;-62
2022/04/06 10:44:53;;;;;;;9.35;2.65;;;;;;;11.39;66.15;99932.81;3546899;40;20093;-63
2022/04/06 10:47:23;;;;;;;7.55;2.70;;;;;;;11.35;67.29;99923.28;3537477;40;20065;-63
2022/04/06 10:50:07;;;;;;;10.15;2.90;;;;;;;11.33;68.10;99922.53;3546676;40;20378;-63
2022/04/06 10:52:33;;;;;;;7.63;2.65;;;;;;;11.28;69.50;99924.72;3535693;40;20058;-64
2022/04/06 10:55:19;;;;;;;6.55;3.00;;;;;;;11.25;69.06;99938.41;3546694;40;20515;-63
2022/04/06 10:58:03;;;;;;;8.45;3.45;;;;;;;11.25;68.21;99927.66;3531664;40;20348;-62
2022/04/06 11:00:31;;;;;;;5.50;2.53;;;;;;;11.28;68.11;99913.09;3547052;40;20057;-63
2022/04/06 11:03:18;;;;;;;7.78;3.10;;;;;;;11.28;68.17;99907.72;3533291;40;20091;-62
2022/04/06 11:05:47;;;;;;;6.57;2.85;;;;;;;11.29;68.30;99909.41;3541459;40;20037;-62
2022/04/06 11:11:45;;;;;;;5.55;2.70;;;;;;;11.33;67.96;99906.38;3545663;40;20076;-62
2022/04/06 11:14:23;;;;;;;5.97;2.22;;;;;;;11.36;67.94;99899.91;3545991;40;20046;-63
2022/04/06 11:16:49;;;;;;;5.22;2.40;;;;;;;11.41;68.04;99903.06;3536396;40;20094;-62
2022/04/06 11:19:15;;;;;;;8.15;2.47;;;;;;;11.45;67.59;99898.28;3541280;40;20054;-63
2022/04/06 11:21:54;;;;;;;8.35;2.47;;;;;;;11.51;66.73;99892.41;3538861;40;20065;-62
2022/04/06 11:24:23;;;;;;;7.03;2.63;;;;;;;11.57;67.13;99889.22;3537914;40;20057;-63
2022/04/06 11:26:51;;;;;;;8.35;2.45;;;;;;;11.62;65.99;99890.56;3540910;40;20118;-63
2022/04/06 11:29:17;;;;;;;3.55;2.13;;;;;;;11.68;65.95;99902.69;3546906;40;20070;-62
2022/04/06 11:32:03;;;;;;;4.18;2.13;;;;;;;11.69;65.89;99876.63;3540154;40;20101;-62
2022/04/06 11:34:46;;;;;;;7.93;2.53;;;;;;;11.69;64.92;99887.38;3538043;40;20377;-63
2022/04/06 11:37:12;;;;;;;6.93;2.60;;;;;;;11.70;65.01;99881.88;3536304;40;20409;-63
2022/04/06 11:39:37;;;;;;;4.60;2.35;;;;;;;11.69;65.13;99885.53;3537397;40;20053;-62